Time;durP1;ratioP1;P1;durP2;ratioP2;P2;SDS_P1;SDS_P2;PMS_P1;PMS_P2;Temp;Humidity;BMP_temperature;BMP_pressure;BME280_temperature;BME280_humidity;BME280_pressure;Samples;Min_cycle;Max_cycle;Signal;HPM_P1;HPM_P2
2021/03/24 00:01:22;;;;;;;24.58;13.25;;;6.30;96.90;;;;;;4980758;28;20030;-72
2021/03/24 00:03:48;;;;;;;22.77;13.98;;;6.30;96.90;;;;;;4981789;28;20037;-76
2021/03/24 00:06:15;;;;;;;23.50;15.23;;;6.30;97.10;;;;;;4979199;28;20080;-77
2021/03/24 00:08:41;;;;;;;22.13;14.27;;;6.30;97.10;;;;;;4978676;28;20018;-73
2021/03/24 00:11:07;;;;;;;22.02;14.02;;;6.30;97.30;;;;;;4979477;28;20050;-72
2021/03/24 00:13:35;;;;;;;22.85;14.57;;;6.30;97.30;;;;;;4977971;28;20073;-77
2021/03/24 00:16:03;;;;;;;26.17;15.52;;;6.20;97.40;;;;;;4978901;28;20046;-77
2021/03/24 00:18:30;;;;;;;22.40;13.82;;;6.20;97.50;;;;;;4978567;28;20113;-74
2021/03/24 00:20:56;;;;;;;20.13;13.05;;;6.20;97.50;;;;;;4979472;28;20023;-74
2021/03/24 00:23:22;;;;;;;22.88;14.57;;;6.20;97.30;;;;;;4976856;28;20062;-73
2021/03/24 00:25:48;;;;;;;21.33;13.23;;;6.20;97.60;;;;;;4976659;28;20047;-77
2021/03/24 00:28:15;;;;;;;19.98;13.55;;;6.20;97.60;;;;;;4980122;28;20026;-74
2021/03/24 00:30:44;;;;;;;18.55;12.88;;;6.10;97.50;;;;;;4979475;28;20553;-73
2021/03/24 00:33:12;;;;;;;19.90;12.40;;;6.20;97.50;;;;;;4976390;28;20571;-74
2021/03/24 00:35:39;;;;;;;21.80;13.18;;;6.20;97.50;;;;;;4979407;28;20078;-74
2021/03/24 00:38:06;;;;;;;21.15;13.18;;;6.20;97.60;;;;;;4977749;28;20022;-74
2021/03/24 00:40:38;;;;;;;17.08;11.77;;;6.10;97.60;;;;;;4976440;28;20029;-77
2021/03/24 00:43:05;;;;;;;18.42;12.25;;;6.10;97.80;;;;;;4976986;28;20023;-72
2021/03/24 00:45:32;;;;;;;20.83;12.68;;;6.10;97.60;;;;;;4979991;28;20374;-71
2021/03/24 00:47:58;;;;;;;16.83;12.13;;;6.10;97.90;;;;;;4977216;28;20003;-77
2021/03/24 00:50:28;;;;;;;17.58;12.45;;;6.00;97.70;;;;;;4977016;28;20053;-76
2021/03/24 00:52:54;;;;;;;22.08;13.48;;;6.00;97.90;;;;;;4977294;28;20556;-77
2021/03/24 00:55:20;;;;;;;19.05;12.45;;;6.00;98.00;;;;;;4975604;28;20027;-77
2021/03/24 00:57:46;;;;;;;19.65;12.63;;;6.00;98.10;;;;;;4978271;28;20078;-75
2021/03/24 01:00:35;;;;;;;19.73;12.70;;;6.00;98.10;;;;;;4978180;28;20018;-77
2021/03/24 01:03:01;;;;;;;21.38;13.13;;;6.00;98.20;;;;;;4978670;28;20456;-73
2021/03/24 01:05:28;;;;;;;17.42;12.30;;;5.90;98.30;;;;;;4976220;28;20030;-77
2021/03/24 01:07:56;;;;;;;19.00;13.20;;;5.90;98.10;;;;;;4977470;28;20103;-71
2021/03/24 01:10:28;;;;;;;18.55;12.98;;;6.00;98.10;;;;;;4978596;28;20094;-72
2021/03/24 01:12:54;;;;;;;19.80;13.50;;;5.90;98.40;;;;;;4978083;28;20027;-76
2021/03/24 01:15:21;;;;;;;19.77;13.15;;;5.90;98.40;;;;;;4977810;28;20027;-72
2021/03/24 01:17:48;;;;;;;16.58;12.07;;;5.90;98.50;;;;;;4978433;28;20481;-72
2021/03/24 01:20:15;;;;;;;19.02;13.35;;;5.90;98.20;;;;;;4977396;28;20498;-76
2021/03/24 01:22:42;;;;;;;21.13;14.00;;;5.80;98.20;;;;;;4977874;28;20492;-73
2021/03/24 01:25:09;;;;;;;24.63;13.85;;;5.90;98.60;;;;;;4976909;28;20043;-74
2021/03/24 01:27:35;;;;;;;22.02;14.20;;;5.80;98.50;;;;;;4977156;28;20026;-73
2021/03/24 01:30:02;;;;;;;18.23;12.45;;;5.90;98.50;;;;;;4977218;28;20027;-72
2021/03/24 01:32:28;;;;;;;19.02;13.05;;;5.90;98.50;;;;;;4978243;28;20052;-74
2021/03/24 01:34:54;;;;;;;16.70;11.55;;;5.90;98.50;;;;;;4976622;28;20388;-71
2021/03/24 01:37:20;;;;;;;19.98;12.65;;;5.90;98.40;;;;;;4979354;28;20023;-73
2021/03/24 01:39:46;;;;;;;22.95;13.55;;;5.90;98.70;;;;;;4980389;28;20026;-75
2021/03/24 01:42:12;;;;;;;21.05;13.50;;;5.90;98.70;;;;;;4981195;28;20030;-73
2021/03/24 01:44:58;;;;;;;17.50;12.15;;;5.90;98.70;;;;;;4981435;28;20027;-76
2021/03/24 01:47:24;;;;;;;18.00;13.30;;;5.80;98.60;;;;;;4980173;28;20504;-77
2021/03/24 01:49:51;;;;;;;19.08;11.98;;;5.90;98.80;;;;;;4981807;28;20469;-72
2021/03/24 01:52:20;;;;;;;19.55;12.98;;;5.80;98.60;;;;;;4981119;28;20017;-76
2021/03/24 01:54:46;;;;;;;19.90;13.75;;;5.80;98.80;;;;;;4980021;28;20015;-76
2021/03/24 01:57:25;;;;;;;19.70;12.25;;;5.80;98.80;;;;;;4980190;28;20019;-73
2021/03/24 01:59:53;;;;;;;18.42;12.30;;;5.80;98.70;;;;;;4981864;28;20059;-71
2021/03/24 02:02:20;;;;;;;19.02;12.85;;;5.80;98.80;;;;;;4982864;28;20030;-73
2021/03/24 02:04:50;;;;;;;17.48;12.52;;;5.80;98.90;;;;;;4980704;28;20035;-73
2021/03/24 02:07:31;;;;;;;19.77;13.18;;;5.80;99.00;;;;;;4979119;28;20113;-76
2021/03/24 02:10:13;;;;;;;17.80;12.38;;;5.80;99.00;;;;;;4978960;28;20039;-71
2021/03/24 02:12:45;;;;;;;17.40;12.43;;;5.70;99.00;;;;;;4980788;28;20026;-77
2021/03/24 02:15:19;;;;;;;19.55;13.02;;;5.70;99.20;;;;;;4980408;28;20023;-77
2021/03/24 02:17:47;;;;;;;17.33;12.07;;;5.70;99.20;;;;;;4981476;28;20054;-71
2021/03/24 02:20:20;;;;;;;18.75;13.15;;;5.70;99.30;;;;;;4980190;28;20019;-76
2021/03/24 02:22:58;;;;;;;20.35;13.05;;;5.70;99.40;;;;;;4980500;28;20085;-77
2021/03/24 02:25:45;;;;;;;19.60;13.35;;;5.70;99.30;;;;;;4980534;28;20519;-74
2021/03/24 02:28:14;;;;;;;20.25;13.13;;;5.70;99.30;;;;;;4980244;28;20058;-71
2021/03/24 02:30:44;;;;;;;19.75;14.07;;;5.80;99.20;;;;;;4980961;28;20437;-72
2021/03/24 02:33:14;;;;;;;18.70;13.60;;;5.70;99.20;;;;;;4981135;28;20029;-77
2021/03/24 02:35:46;;;;;;;20.52;13.82;;;5.80;99.00;;;;;;4980360;28;20473;-76
2021/03/24 02:38:14;;;;;;;20.67;14.90;;;5.70;99.20;;;;;;4979388;28;20365;-77
2021/03/24 02:40:42;;;;;;;22.58;13.57;;;5.70;99.20;;;;;;4979606;28;20034;-73
2021/03/24 02:43:09;;;;;;;20.42;13.68;;;5.70;99.10;;;;;;4980619;28;20011;-77
2021/03/24 02:45:39;;;;;;;19.00;13.55;;;5.70;99.10;;;;;;4980271;28;20031;-71
2021/03/24 02:48:09;;;;;;;20.55;14.07;;;5.70;99.20;;;;;;4980760;28;20445;-73
2021/03/24 02:50:38;;;;;;;25.33;16.08;;;5.70;99.20;;;;;;4980265;28;20109;-74
2021/03/24 02:53:05;;;;;;;17.95;13.13;;;5.70;99.40;;;;;;4980495;28;20488;-77
2021/03/24 02:55:33;;;;;;;19.08;13.68;;;5.70;99.10;;;;;;4978586;28;20019;-76
2021/03/24 02:57:59;;;;;;;22.45;15.02;;;5.70;99.20;;;;;;4981045;28;20027;-76
2021/03/24 03:00:27;;;;;;;22.10;14.07;;;5.70;99.40;;;;;;4980020;28;20050;-76
2021/03/24 03:03:01;;;;;;;20.42;14.10;;;5.60;99.30;;;;;;4980131;28;20373;-76
2021/03/24 03:05:30;;;;;;;;;;;5.70;99.60;;;;;;4978845;28;20106;-75
2021/03/24 03:08:10;;;;;;;22.45;15.35;;;5.70;99.70;;;;;;4980356;28;20285;-71
2021/03/24 03:11:01;;;;;;;26.65;16.42;;;5.70;99.70;;;;;;4979509;28;20473;-72
2021/03/24 03:13:45;;;;;;;21.88;13.73;;;5.70;99.70;;;;;;4980799;28;20038;-71
2021/03/24 03:16:38;;;;;;;28.38;17.17;;;5.60;99.60;;;;;;4978380;28;20110;-71
2021/03/24 03:19:21;;;;;;;26.63;16.38;;;5.60;99.70;;;;;;4979521;28;20500;-72
2021/03/24 03:21:53;;;;;;;20.83;14.70;;;5.60;99.80;;;;;;4978807;28;20006;-75
2021/03/24 03:24:25;;;;;;;22.52;14.85;;;5.50;99.60;;;;;;4979426;28;20034;-75
2021/03/24 03:26:56;;;;;;;23.83;16.08;;;5.60;99.80;;;;;;4978493;28;20117;-72
2021/03/24 03:29:23;;;;;;;50.95;28.55;;;5.60;99.90;;;;;;4979154;28;20034;-75
2021/03/24 03:31:51;;;;;;;28.25;17.95;;;5.50;99.90;;;;;;4979156;28;20400;-71
2021/03/24 03:34:23;;;;;;;21.63;14.68;;;5.50;99.90;;;;;;4978735;28;20030;-75
2021/03/24 03:36:53;;;;;;;30.52;18.48;;;5.50;99.90;;;;;;4979731;28;20038;-75
2021/03/24 03:39:22;;;;;;;19.90;14.13;;;5.50;99.90;;;;;;4977725;28;20029;-71
2021/03/24 03:41:50;;;;;;;22.60;15.45;;;5.50;99.90;;;;;;4978748;28;20023;-77
2021/03/24 03:44:16;;;;;;;22.65;14.10;;;5.50;99.90;;;;;;4979159;28;20046;-75
2021/03/24 03:46:48;;;;;;;24.45;15.15;;;5.60;99.90;;;;;;4977255;28;20031;-76
2021/03/24 03:49:14;;;;;;;22.40;15.02;;;5.60;99.90;;;;;;4978370;28;20026;-77
2021/03/24 03:52:11;;;;;;;27.67;18.52;;;5.60;99.90;;;;;;4978953;28;20026;-72
2021/03/24 03:54:43;;;;;;;30.73;20.02;;;5.50;99.90;;;;;;4978095;28;20026;-72
2021/03/24 03:57:26;;;;;;;21.05;14.50;;;5.60;99.90;;;;;;4977509;28;20022;-75
2021/03/24 03:59:57;;;;;;;24.77;16.15;;;5.50;99.90;;;;;;4979212;28;20023;-74
2021/03/24 04:02:34;;;;;;;31.17;20.27;;;5.50;99.90;;;;;;4978385;28;20015;-75
2021/03/24 04:05:06;;;;;;;21.67;14.50;;;5.50;99.90;;;;;;4978857;28;20065;-72
2021/03/24 04:07:38;;;;;;;25.92;15.73;;;5.50;99.90;;;;;;4978676;28;20406;-76
2021/03/24 04:10:05;;;;;;;24.60;17.52;;;5.50;99.90;;;;;;4979498;28;20027;-76
2021/03/24 04:12:34;;;;;;;24.58;16.92;;;5.50;99.90;;;;;;4978345;28;20030;-74
2021/03/24 04:15:03;;;;;;;22.50;15.30;;;5.40;99.90;;;;;;4977102;28;20030;-75
2021/03/24 04:17:35;;;;;;;31.05;23.15;;;5.50;99.90;;;;;;4980814;28;20480;-71
2021/03/24 04:20:04;;;;;;;31.83;22.63;;;5.40;99.90;;;;;;4977098;28;20031;-73
2021/03/24 04:22:32;;;;;;;28.92;19.90;;;5.40;99.90;;;;;;4977968;28;20093;-73
2021/03/24 04:25:00;;;;;;;23.83;16.50;;;5.30;99.90;;;;;;4976304;28;20066;-76
2021/03/24 04:27:31;;;;;;;25.75;16.77;;;5.30;99.90;;;;;;4979001;28;20023;-76
2021/03/24 04:30:08;;;;;;;31.00;19.75;;;5.30;99.90;;;;;;4978062;28;20027;-76
2021/03/24 04:32:34;;;;;;;25.10;17.10;;;5.30;99.90;;;;;;4977532;28;20007;-71
2021/03/24 04:35:01;;;;;;;41.70;27.38;;;5.30;99.90;;;;;;4980896;28;20122;-71
2021/03/24 04:37:42;;;;;;;37.20;23.98;;;5.30;99.90;;;;;;4978075;28;20377;-71
2021/03/24 04:40:17;;;;;;;33.25;21.88;;;5.40;99.90;;;;;;4979019;28;20026;-75
2021/03/24 04:42:52;;;;;;;33.95;22.23;;;5.30;99.90;;;;;;4978880;28;20093;-70
2021/03/24 04:45:40;;;;;;;37.78;23.77;;;5.40;99.90;;;;;;4976634;28;20045;-76
2021/03/24 04:48:30;;;;;;;29.33;21.13;;;5.40;99.90;;;;;;4976990;28;20038;-70
2021/03/24 04:51:04;;;;;;;31.27;22.13;;;5.40;99.90;;;;;;4977397;28;20021;-71
2021/03/24 04:53:41;;;;;;;40.42;26.33;;;5.50;99.90;;;;;;4978806;28;20100;-70
2021/03/24 04:56:09;;;;;;;31.17;22.20;;;5.40;99.90;;;;;;4976017;28;20042;-76
2021/03/24 04:58:42;;;;;;;30.45;20.63;;;5.40;99.90;;;;;;4976576;28;20031;-76
2021/03/24 05:01:26;;;;;;;33.83;22.17;;;5.40;99.90;;;;;;4976584;28;20043;-76
2021/03/24 05:03:59;;;;;;;32.08;22.15;;;5.30;99.90;;;;;;4977469;28;20033;-76
2021/03/24 05:06:38;;;;;;;35.40;25.38;;;5.30;99.90;;;;;;4974764;28;20027;-76
2021/03/24 05:09:09;;;;;;;34.03;22.33;;;5.40;99.90;;;;;;4978008;28;20034;-76
2021/03/24 05:12:10;;;;;;;31.60;22.92;;;5.40;99.90;;;;;;4977007;28;20428;-72
2021/03/24 05:14:43;;;;;;;32.90;21.95;;;5.40;99.90;;;;;;4981613;28;20014;-70
2021/03/24 05:17:15;;;;;;;28.67;20.27;;;5.40;99.90;;;;;;4982011;28;20139;-75
2021/03/24 05:19:42;;;;;;;26.75;19.73;;;5.30;99.90;;;;;;4981337;28;20029;-70
2021/03/24 05:22:40;;;;;;;30.20;20.58;;;5.30;99.90;;;;;;4980445;28;20046;-76
2021/03/24 05:25:21;;;;;;;32.85;23.75;;;5.40;99.90;;;;;;4974108;28;20520;-70
2021/03/24 05:27:59;;;;;;;34.95;22.27;;;5.40;99.90;;;;;;4981531;28;20030;-76
2021/03/24 05:30:30;;;;;;;31.67;21.55;;;5.40;99.90;;;;;;4982493;28;20105;-73
2021/03/24 05:33:23;;;;;;;33.58;22.63;;;5.40;99.90;;;;;;4980525;28;20011;-71
2021/03/24 05:35:58;;;;;;;29.15;20.88;;;5.40;99.90;;;;;;4982658;28;20022;-76
2021/03/24 05:38:41;;;;;;;29.88;21.90;;;5.50;99.90;;;;;;4981085;28;20031;-74
2021/03/24 05:41:30;;;;;;;43.53;30.70;;;5.40;99.90;;;;;;4980812;28;20021;-73
2021/03/24 05:44:23;;;;;;;46.65;31.95;;;5.40;99.90;;;;;;4981666;28;20055;-71
2021/03/24 05:47:14;;;;;;;40.25;29.10;;;5.50;99.90;;;;;;4981204;28;20031;-77
2021/03/24 05:50:01;;;;;;;36.28;24.77;;;5.50;99.90;;;;;;4980600;28;20030;-72
2021/03/24 05:52:55;;;;;;;32.08;24.30;;;5.50;99.90;;;;;;4980754;28;20054;-76
2021/03/24 05:55:53;;;;;;;42.72;29.20;;;5.40;99.90;;;;;;4978411;28;20026;-73
2021/03/24 05:58:51;;;;;;;39.90;27.02;;;5.40;99.90;;;;;;4979889;28;20034;-77
2021/03/24 06:01:26;;;;;;;48.28;31.30;;;5.40;99.90;;;;;;4981466;28;20062;-72
2021/03/24 06:04:00;;;;;;;;;;;5.40;99.90;;;;;;4981969;28;20035;-71
2021/03/24 06:06:48;;;;;;;31.30;21.98;;;5.50;99.90;;;;;;4979184;28;19985;-73
2021/03/24 06:09:29;;;;;;;45.70;26.17;;;5.50;99.90;;;;;;4980161;28;20042;-74
2021/03/24 06:12:07;;;;;;;46.72;29.58;;;5.50;99.90;;;;;;4982311;28;20022;-71
2021/03/24 06:15:07;;;;;;;65.03;36.75;;;5.40;99.90;;;;;;4979454;28;20031;-73
2021/03/24 06:17:48;;;;;;;70.60;42.63;;;5.40;99.90;;;;;;4979888;28;20034;-75
2021/03/24 06:20:41;;;;;;;55.40;33.63;;;5.50;99.90;;;;;;4980384;28;20097;-74
2021/03/24 06:23:25;;;;;;;50.42;33.40;;;5.50;99.90;;;;;;4978145;28;20114;-74
2021/03/24 06:26:03;;;;;;;43.05;29.20;;;5.60;99.90;;;;;;4980348;28;20051;-72
2021/03/24 06:28:53;;;;;;;34.97;22.40;;;5.70;99.90;;;;;;4981789;28;20081;-74
2021/03/24 06:31:46;;;;;;;32.50;22.67;;;5.70;99.90;;;;;;4980898;28;20022;-71
2021/03/24 06:34:49;;;;;;;27.00;19.90;;;5.80;99.90;;;;;;4980838;28;20030;-74
2021/03/24 06:38:12;;;;;;;28.27;20.63;;;5.80;99.90;;;;;;4980177;28;20019;-72
2021/03/24 06:40:42;;;;;;;26.90;19.20;;;5.80;99.90;;;;;;4920316;29;20055;-75
2021/03/24 06:43:26;;;;;;;26.05;18.40;;;5.90;99.90;;;;;;4906044;29;20035;-72
2021/03/24 06:46:28;;;;;;;24.10;17.40;;;6.00;99.90;;;;;;4922639;29;20032;-74
2021/03/24 06:49:31;;;;;;;25.85;18.35;;;6.00;99.90;;;;;;4922609;29;20578;-75
2021/03/24 06:52:18;;;;;;;28.02;21.42;;;5.90;99.90;;;;;;4922006;29;20023;-75
2021/03/24 06:55:20;;;;;;;25.98;20.13;;;6.00;99.90;;;;;;4920353;29;20040;-70
2021/03/24 06:58:35;;;;;;;28.38;20.50;;;6.00;99.90;;;;;;4920901;29;20574;-72
2021/03/24 07:01:23;;;;;;;25.30;19.63;;;6.00;99.90;;;;;;4914292;29;20044;-72
2021/03/24 07:03:52;;;;;;;38.92;22.00;;;6.00;99.90;;;;;;4917912;29;20040;-74
2021/03/24 07:06:42;;;;;;;27.98;20.58;;;5.90;99.90;;;;;;4919562;29;20024;-73
2021/03/24 07:09:26;;;;;;;24.63;17.75;;;5.90;99.90;;;;;;4922068;29;20501;-73
2021/03/24 07:12:26;;;;;;;25.10;18.52;;;5.90;99.90;;;;;;4955951;28;20384;-71
2021/03/24 07:15:16;;;;;;;28.48;18.88;;;5.90;99.90;;;;;;4979917;28;20027;-73
2021/03/24 07:18:07;;;;;;;27.27;19.33;;;5.90;99.90;;;;;;4980064;28;20085;-73
2021/03/24 07:21:09;;;;;;;24.73;17.08;;;5.90;99.90;;;;;;4978492;28;20027;-72
2021/03/24 07:23:35;;;;;;;23.20;15.32;;;5.70;99.90;;;;;;4979539;28;20022;-70
2021/03/24 07:26:05;;;;;;;22.77;15.60;;;5.70;99.90;;;;;;4979029;28;20039;-70
2021/03/24 07:28:45;;;;;;;51.08;32.65;;;5.70;99.90;;;;;;4979364;28;20030;-70
2021/03/24 07:31:43;;;;;;;42.60;29.30;;;5.50;99.90;;;;;;4979431;28;20449;-70
2021/03/24 07:34:18;;;;;;;32.25;22.83;;;5.50;99.90;;;;;;4977869;28;20045;-70
2021/03/24 07:37:06;;;;;;;33.75;23.67;;;5.60;99.90;;;;;;4978155;28;20002;-74
2021/03/24 07:39:50;;;;;;;27.98;20.10;;;5.60;99.90;;;;;;4981203;28;20014;-72
2021/03/24 07:42:53;;;;;;;59.88;39.25;;;5.60;99.90;;;;;;4978991;28;20031;-70
2021/03/24 07:45:53;;;;;;;35.35;24.02;;;5.50;99.90;;;;;;4979588;28;20062;-72
2021/03/24 07:48:40;;;;;;;27.40;18.42;;;5.60;99.90;;;;;;4978836;28;20097;-73
2021/03/24 07:51:22;;;;;;;32.30;20.05;;;5.60;99.90;;;;;;4980791;28;20062;-69
2021/03/24 07:53:56;;;;;;;31.83;21.92;;;5.50;99.90;;;;;;4979848;28;20026;-69
2021/03/24 07:56:28;;;;;;;28.65;20.00;;;5.50;99.90;;;;;;4979180;28;20030;-68
2021/03/24 07:59:22;;;;;;;46.33;30.52;;;5.50;99.90;;;;;;4979117;28;20035;-71
2021/03/24 08:02:03;;;;;;;27.75;20.42;;;5.60;99.90;;;;;;4982839;28;20027;-69
2021/03/24 08:04:56;;;;;;;26.15;19.52;;;5.60;99.90;;;;;;4995575;28;20034;-72
2021/03/24 08:07:42;;;;;;;27.50;19.55;;;5.60;99.90;;;;;;4994305;28;20465;-71
2021/03/24 08:10:23;;;;;;;27.08;18.50;;;5.60;99.90;;;;;;4995410;28;20028;-71
2021/03/24 08:13:10;;;;;;;22.45;17.23;;;5.60;99.90;;;;;;4998981;28;20034;-72
2021/03/24 08:16:00;;;;;;;29.70;20.33;;;5.60;99.90;;;;;;4994737;28;20036;-72
2021/03/24 08:18:59;;;;;;;27.75;17.73;;;5.60;99.90;;;;;;4999519;28;20033;-70
2021/03/24 08:21:34;;;;;;;44.30;30.63;;;5.60;99.90;;;;;;4995621;28;20030;-71
2021/03/24 08:24:38;;;;;;;25.60;18.33;;;5.60;99.90;;;;;;4996710;28;20484;-73
2021/03/24 08:27:47;;;;;;;30.40;20.30;;;5.60;99.90;;;;;;4998878;28;20034;-71
2021/03/24 08:30:17;;;;;;;51.00;33.95;;;5.50;99.90;;;;;;4998362;28;20014;-71
2021/03/24 08:33:10;;;;;;;61.15;42.65;;;5.50;99.90;;;;;;4997115;28;20049;-69
2021/03/24 08:36:05;;;;;;;27.90;20.38;;;5.50;99.90;;;;;;4998060;28;20022;-72
2021/03/24 08:39:08;;;;;;;26.42;18.70;;;5.50;99.90;;;;;;4997526;28;20476;-69
2021/03/24 08:42:11;;;;;;;35.55;27.20;;;5.50;99.90;;;;;;4996867;28;20536;-70
2021/03/24 08:44:53;;;;;;;33.90;23.73;;;5.60;99.90;;;;;;4996095;28;20031;-72
2021/03/24 08:47:41;;;;;;;35.92;24.75;;;5.60;99.90;;;;;;5002043;28;20057;-72
2021/03/24 08:50:30;;;;;;;48.95;34.63;;;5.70;99.90;;;;;;4999174;28;20476;-69
2021/03/24 08:53:06;;;;;;;31.58;21.13;;;5.80;99.90;;;;;;4999750;28;20034;-70
2021/03/24 08:55:49;;;;;;;32.70;23.20;;;5.80;99.90;;;;;;5002595;28;20037;-71
2021/03/24 08:58:32;;;;;;;38.40;23.42;;;5.80;99.90;;;;;;5000657;28;20039;-72
2021/03/24 09:01:26;;;;;;;37.25;24.13;;;5.80;99.90;;;;;;5001669;28;20105;-71
2021/03/24 09:04:21;;;;;;;40.25;24.35;;;5.90;99.90;;;;;;5000469;28;20033;-70
2021/03/24 09:07:13;;;;;;;61.40;32.42;;;6.00;99.90;;;;;;4991117;28;20030;-71
2021/03/24 09:09:48;;;;;;;72.40;46.75;;;6.00;99.90;;;;;;5000389;28;20017;-71
2021/03/24 09:13:00;;;;;;;37.28;22.63;;;6.10;99.90;;;;;;4999424;28;20144;-71
2021/03/24 09:16:07;;;;;;;22.17;16.23;;;6.00;99.90;;;;;;4971310;28;20499;-71
2021/03/24 09:18:35;;;;;;;40.15;25.13;;;6.10;99.90;;;;;;4916601;28;20032;-70
2021/03/24 09:21:15;;;;;;;24.92;16.67;;;6.10;99.90;;;;;;5001311;28;20022;-69
2021/03/24 09:23:53;;;;;;;30.98;19.73;;;6.00;99.90;;;;;;4990954;28;20080;-71
2021/03/24 09:26:55;;;;;;;22.38;15.85;;;6.10;99.90;;;;;;4994948;28;20515;-70
2021/03/24 09:29:51;;;;;;;24.13;16.70;;;6.20;99.90;;;;;;4987684;28;20106;-69
2021/03/24 09:32:20;;;;;;;23.40;16.75;;;6.30;99.90;;;;;;4987974;28;20027;-71
2021/03/24 09:35:15;;;;;;;27.10;19.60;;;6.40;99.90;;;;;;4987126;28;20018;-69
2021/03/24 09:37:45;;;;;;;23.73;16.73;;;6.30;99.90;;;;;;4987783;28;20026;-69
2021/03/24 09:40:42;;;;;;;20.02;14.68;;;6.30;99.90;;;;;;4986475;28;20027;-69
2021/03/24 09:43:35;;;;;;;20.25;15.02;;;6.40;99.90;;;;;;4986351;28;20051;-69
2021/03/24 09:46:15;;;;;;;26.10;17.98;;;6.40;99.90;;;;;;4977291;28;20051;-70
2021/03/24 09:48:52;;;;;;;22.05;15.88;;;6.40;99.90;;;;;;4981276;28;20026;-71
2021/03/24 09:51:40;;;;;;;23.08;15.88;;;6.40;99.90;;;;;;4987889;28;20023;-70
2021/03/24 09:54:24;;;;;;;23.70;16.52;;;6.40;99.90;;;;;;4992499;28;20032;-69
2021/03/24 09:57:07;;;;;;;22.90;16.43;;;6.30;99.90;;;;;;5003069;28;20429;-71
2021/03/24 09:59:46;;;;;;;24.45;18.38;;;6.40;99.90;;;;;;5001694;28;20346;-71
2021/03/24 10:02:18;;;;;;;28.10;20.77;;;6.40;99.90;;;;;;5003037;28;20030;-71
2021/03/24 10:05:00;;;;;;;27.20;20.10;;;6.40;99.90;;;;;;5002135;28;20035;-70
2021/03/24 10:07:37;;;;;;;21.75;16.33;;;6.40;99.90;;;;;;5002558;28;20034;-72
2021/03/24 10:10:25;;;;;;;22.75;17.23;;;6.30;99.90;;;;;;5004164;28;20090;-72
2021/03/24 10:12:55;;;;;;;23.05;17.35;;;6.30;99.90;;;;;;5003244;28;20072;-71
2021/03/24 10:15:41;;;;;;;21.70;16.15;;;6.30;99.90;;;;;;5001501;28;20073;-70
2021/03/24 10:18:17;;;;;;;23.20;16.95;;;6.30;99.90;;;;;;5003023;28;20022;-70
2021/03/24 10:21:10;;;;;;;25.52;18.17;;;6.30;99.90;;;;;;5001874;28;20493;-71
2021/03/24 10:23:45;;;;;;;28.10;20.20;;;6.30;99.90;;;;;;4992196;28;20064;-72
2021/03/24 10:26:27;;;;;;;31.33;21.05;;;6.30;99.90;;;;;;4999552;28;20450;-71
2021/03/24 10:28:58;;;;;;;27.90;19.52;;;6.30;99.90;;;;;;4999143;28;20069;-69
2021/03/24 10:31:47;;;;;;;26.00;18.60;;;6.20;99.90;;;;;;5000782;28;20029;-71
2021/03/24 10:34:36;;;;;;;33.63;22.52;;;6.30;99.90;;;;;;5001991;28;20018;-71
2021/03/24 10:37:11;;;;;;;35.17;24.73;;;6.40;99.90;;;;;;5001128;28;20087;-70
2021/03/24 10:39:57;;;;;;;39.33;26.75;;;6.40;99.90;;;;;;5001792;28;20027;-71
2021/03/24 10:42:41;;;;;;;37.00;29.50;;;6.50;99.90;;;;;;4999951;28;20488;-70
2021/03/24 10:45:31;;;;;;;29.65;22.52;;;6.40;99.90;;;;;;4999383;28;20030;-71
2021/03/24 10:48:09;;;;;;;30.58;21.73;;;6.40;99.90;;;;;;4999315;28;20109;-70
2021/03/24 10:50:40;;;;;;;27.73;20.13;;;6.50;99.90;;;;;;4998671;28;20028;-71
2021/03/24 10:53:30;;;;;;;40.13;24.67;;;6.50;99.90;;;;;;4999561;28;20033;-70
2021/03/24 10:55:56;;;;;;;66.28;43.60;;;6.40;99.90;;;;;;5001451;28;20038;-70
2021/03/24 10:59:03;;;;;;;50.50;30.95;;;6.40;99.90;;;;;;5000130;28;20034;-72
2021/03/24 11:01:57;;;;;;;45.30;28.27;;;6.40;99.90;;;;;;4995691;28;20040;-70
2021/03/24 11:04:50;;;;;;;65.80;35.58;;;6.40;99.90;;;;;;4989743;28;20543;-70
2021/03/24 11:07:43;;;;;;;40.38;23.02;;;6.40;99.90;;;;;;4998966;28;20022;-70
2021/03/24 11:10:30;;;;;;;38.72;26.02;;;6.40;99.90;;;;;;4997325;28;20476;-71
2021/03/24 11:13:02;;;;;;;35.13;23.88;;;6.40;99.90;;;;;;4999368;28;20361;-70
2021/03/24 11:15:57;;;;;;;52.88;31.08;;;6.40;99.90;;;;;;4997037;28;20027;-70
2021/03/24 11:18:42;;;;;;;46.28;29.27;;;6.40;99.90;;;;;;4996006;28;20065;-70
2021/03/24 11:21:34;;;;;;;59.33;34.03;;;6.40;99.90;;;;;;4995097;28;20026;-69
2021/03/24 11:24:33;;;;;;;84.60;48.20;;;6.30;99.90;;;;;;4995893;28;20043;-69
2021/03/24 11:27:10;;;;;;;75.35;46.15;;;6.30;99.90;;;;;;4996171;28;20403;-70
2021/03/24 11:30:12;;;;;;;102.07;64.55;;;6.40;99.90;;;;;;4996239;28;20057;-71
2021/03/24 11:32:41;;;;;;;94.63;55.22;;;6.40;99.90;;;;;;4901294;29;20490;-69
2021/03/24 11:35:19;;;;;;;90.93;52.75;;;6.50;99.90;;;;;;4902580;29;20032;-69
2021/03/24 11:37:50;;;;;;;63.10;37.22;;;6.50;99.90;;;;;;4918352;29;20024;-71
2021/03/24 11:40:39;;;;;;;86.60;49.97;;;6.50;99.90;;;;;;4921032;29;20048;-70
2021/03/24 11:43:09;;;;;;;74.50;44.90;;;6.50;99.90;;;;;;4920857;29;20044;-72
2021/03/24 11:45:37;;;;;;;65.05;36.70;;;6.50;99.90;;;;;;4918312;29;20032;-70
2021/03/24 11:48:21;;;;;;;83.38;49.88;;;6.50;99.90;;;;;;4918359;29;20029;-71
2021/03/24 11:51:14;;;;;;;62.55;38.10;;;6.60;99.90;;;;;;4919637;29;20131;-70
2021/03/24 11:54:17;;;;;;;49.03;30.30;;;6.50;99.90;;;;;;4918320;29;20085;-71
2021/03/24 11:56:57;;;;;;;62.42;39.65;;;6.60;99.90;;;;;;4920302;29;20039;-70
2021/03/24 11:59:42;;;;;;;58.58;36.88;;;6.60;99.90;;;;;;4920519;29;20108;-70
2021/03/24 12:02:28;;;;;;;55.88;35.53;;;6.60;99.90;;;;;;4920794;29;20136;-71
2021/03/24 12:05:33;;;;;;;62.55;38.85;;;6.60;99.90;;;;;;4911288;29;20037;-70
2021/03/24 12:08:10;;;;;;;80.40;45.97;;;6.60;99.90;;;;;;4902291;29;20509;-69
2021/03/24 12:10:39;;;;;;;84.68;50.70;;;6.60;99.90;;;;;;4939166;29;20378;-71
2021/03/24 12:13:27;;;;;;;48.97;32.63;;;6.70;99.90;;;;;;4934312;29;20022;-70
2021/03/24 12:16:00;;;;;;;59.63;35.95;;;6.60;99.90;;;;;;4934429;29;20106;-70
2021/03/24 12:18:26;;;;;;;43.90;28.80;;;6.70;99.90;;;;;;4938758;29;20031;-70
2021/03/24 12:21:02;;;;;;;43.53;28.80;;;6.80;99.90;;;;;;4938337;29;20110;-70
2021/03/24 12:23:36;;;;;;;48.58;31.50;;;6.80;99.90;;;;;;4939224;29;20047;-70
2021/03/24 12:26:05;;;;;;;35.13;23.63;;;6.90;99.90;;;;;;4937874;29;20154;-70
2021/03/24 12:28:41;;;;;;;44.50;28.50;;;7.00;99.90;;;;;;4921412;29;20083;-70
2021/03/24 12:31:11;;;;;;;33.00;22.08;;;7.10;99.90;;;;;;4939135;29;20103;-70
2021/03/24 12:33:46;;;;;;;28.48;20.08;;;7.10;99.90;;;;;;4937737;29;20109;-71
2021/03/24 12:36:19;;;;;;;36.20;25.00;;;7.10;99.70;;;;;;4938674;29;20040;-70
2021/03/24 12:38:53;;;;;;;46.45;28.05;;;7.00;99.40;;;;;;4938256;29;20040;-71
2021/03/24 12:41:37;;;;;;;58.65;30.05;;;7.00;99.70;;;;;;4921388;29;20046;-70
2021/03/24 12:44:17;;;;;;;33.75;23.42;;;7.10;99.50;;;;;;4969673;28;20046;-70
2021/03/24 12:46:49;;;;;;;30.60;21.48;;;7.10;99.70;;;;;;4980118;28;20030;-69
2021/03/24 12:49:22;;;;;;;48.47;30.52;;;7.20;99.10;;;;;;4978905;28;20133;-70
2021/03/24 12:52:08;;;;;;;44.85;27.05;;;7.20;99.20;;;;;;4980079;28;20113;-70
2021/03/24 12:54:33;;;;;;;51.95;32.03;;;7.20;99.40;;;;;;4978818;28;20426;-69
2021/03/24 12:57:02;;;;;;;35.58;23.52;;;7.30;99.30;;;;;;4974935;28;20068;-69
2021/03/24 13:00:08;;;;;;;48.53;30.83;;;7.40;99.30;;;;;;4974785;28;20070;-68
2021/03/24 13:03:01;;;;;;;26.58;19.55;;;7.40;99.90;;;;;;4974957;28;20031;-69
2021/03/24 13:05:35;;;;;;;31.70;22.40;;;7.30;98.80;;;;;;4975056;28;20484;-68
2021/03/24 13:08:29;;;;;;;44.97;27.27;;;7.30;99.70;;;;;;4977022;28;20061;-68
2021/03/24 13:11:48;;;;;;;32.55;22.85;;;7.20;99.60;;;;;;4974331;28;20085;-69
2021/03/24 13:14:23;;;;;;;41.03;24.35;;;7.20;99.90;;;;;;4915865;29;20488;-69
2021/03/24 13:17:02;;;;;;;47.08;28.92;;;7.10;99.40;;;;;;4917161;29;20040;-70
2021/03/24 13:19:39;;;;;;;70.57;38.05;;;7.10;99.50;;;;;;4900992;29;20031;-68
2021/03/24 13:22:22;;;;;;;82.40;42.35;;;7.10;99.40;;;;;;4916284;29;20044;-69
2021/03/24 13:24:59;;;;;;;44.35;26.40;;;7.10;99.90;;;;;;4916426;29;20063;-70
2021/03/24 13:27:34;;;;;;;51.38;30.63;;;7.00;99.90;;;;;;4901649;29;20513;-70
2021/03/24 13:30:03;;;;;;;;;;;7.00;99.30;;;;;;4917782;29;20530;-70
2021/03/24 13:32:50;;;;;;;39.80;25.67;;;7.10;99.60;;;;;;4917109;29;19942;-70
2021/03/24 13:35:31;;;;;;;45.80;28.80;;;7.10;99.70;;;;;;4924426;29;20040;-70
2021/03/24 13:37:57;;;;;;;35.20;22.95;;;7.10;99.90;;;;;;4920601;29;20035;-73
2021/03/24 13:40:35;;;;;;;36.45;22.58;;;7.00;99.50;;;;;;4906275;29;20043;-70